sensor_id;sensor_type;location;lat;lon;timestamp;P1;durP1;ratioP1;P2;durP2;ratioP2
36185;SDS011;22228;53.222;7.446;2022-10-17T00:00:48;11.67;;;8.30;;
36185;SDS011;22228;53.222;7.446;2022-10-17T00:03:17;8.70;;;7.83;;
36185;SDS011;22228;53.222;7.446;2022-10-17T00:05:39;12.33;;;7.90;;
36185;SDS011;22228;53.222;7.446;2022-10-17T00:08:00;13.03;;;7.67;;
36185;SDS011;22228;53.222;7.446;2022-10-17T00:10:22;11.07;;;8.33;;
36185;SDS011;22228;53.222;7.446;2022-10-17T00:12:45;12.23;;;8.37;;
36185;SDS011;22228;53.222;7.446;2022-10-17T00:15:06;14.87;;;8.47;;
36185;SDS011;22228;53.222;7.446;2022-10-17T00:17:29;15.50;;;8.83;;
36185;SDS011;22228;53.222;7.446;2022-10-17T00:19:52;11.80;;;8.43;;
36185;SDS011;22228;53.222;7.446;2022-10-17T00:22:13;11.60;;;7.63;;
36185;SDS011;22228;53.222;7.446;2022-10-17T00:24:34;8.67;;;7.77;;
36185;SDS011;22228;53.222;7.446;2022-10-17T00:26:54;9.57;;;6.63;;
36185;SDS011;22228;53.222;7.446;2022-10-17T00:29:15;12.90;;;7.07;;
36185;SDS011;22228;53.222;7.446;2022-10-17T00:31:39;8.90;;;6.40;;
36185;SDS011;22228;53.222;7.446;2022-10-17T00:34:00;10.97;;;7.10;;
36185;SDS011;22228;53.222;7.446;2022-10-17T00:36:23;13.00;;;6.80;;
36185;SDS011;22228;53.222;7.446;2022-10-17T00:38:44;12.07;;;6.33;;
36185;SDS011;22228;53.222;7.446;2022-10-17T00:41:10;10.57;;;7.00;;
36185;SDS011;22228;53.222;7.446;2022-10-17T00:43:47;9.47;;;7.13;;
36185;SDS011;22228;53.222;7.446;2022-10-17T00:46:09;10.13;;;6.03;;
36185;SDS011;22228;53.222;7.446;2022-10-17T00:48:35;14.30;;;5.93;;
36185;SDS011;22228;53.222;7.446;2022-10-17T00:50:56;10.97;;;6.20;;
36185;SDS011;22228;53.222;7.446;2022-10-17T00:53:20;9.23;;;5.23;;
36185;SDS011;22228;53.222;7.446;2022-10-17T00:55:41;8.50;;;5.10;;
36185;SDS011;22228;53.222;7.446;2022-10-17T00:58:05;9.33;;;5.50;;
36185;SDS011;22228;53.222;7.446;2022-10-17T01:00:27;7.30;;;5.73;;
36185;SDS011;22228;53.222;7.446;2022-10-17T01:02:50;7.10;;;4.83;;
36185;SDS011;22228;53.222;7.446;2022-10-17T01:05:11;7.13;;;4.57;;
36185;SDS011;22228;53.222;7.446;2022-10-17T01:07:34;10.27;;;5.33;;
36185;SDS011;22228;53.222;7.446;2022-10-17T01:10:05;9.40;;;5.87;;
36185;SDS011;22228;53.222;7.446;2022-10-17T01:12:27;7.10;;;4.97;;
36185;SDS011;22228;53.222;7.446;2022-10-17T01:15:02;8.70;;;5.83;;
36185;SDS011;22228;53.222;7.446;2022-10-17T01:17:32;9.03;;;5.47;;
36185;SDS011;22228;53.222;7.446;2022-10-17T01:20:08;6.43;;;5.30;;
36185;SDS011;22228;53.222;7.446;2022-10-17T01:22:58;8.00;;;5.13;;
36185;SDS011;22228;53.222;7.446;2022-10-17T01:25:39;9.63;;;5.07;;
36185;SDS011;22228;53.222;7.446;2022-10-17T01:28:13;5.80;;;4.50;;
36185;SDS011;22228;53.222;7.446;2022-10-17T01:30:55;8.20;;;4.97;;
36185;SDS011;22228;53.222;7.446;2022-10-17T01:33:26;9.20;;;5.10;;
36185;SDS011;22228;53.222;7.446;2022-10-17T01:35:53;6.37;;;4.57;;
36185;SDS011;22228;53.222;7.446;2022-10-17T01:38:23;7.93;;;5.00;;
36185;SDS011;22228;53.222;7.446;2022-10-17T01:40:48;8.50;;;4.80;;
36185;SDS011;22228;53.222;7.446;2022-10-17T01:43:22;7.03;;;5.43;;
36185;SDS011;22228;53.222;7.446;2022-10-17T01:45:48;8.47;;;5.00;;
36185;SDS011;22228;53.222;7.446;2022-10-17T01:48:15;8.03;;;5.20;;
36185;SDS011;22228;53.222;7.446;2022-10-17T01:50:41;7.23;;;5.10;;
36185;SDS011;22228;53.222;7.446;2022-10-17T01:53:07;9.03;;;4.77;;
36185;SDS011;22228;53.222;7.446;2022-10-17T01:55:39;10.93;;;5.47;;
36185;SDS011;22228;53.222;7.446;2022-10-17T01:58:03;7.90;;;5.30;;
36185;SDS011;22228;53.222;7.446;2022-10-17T02:00:27;11.17;;;5.10;;
36185;SDS011;22228;53.222;7.446;2022-10-17T02:02:50;7.47;;;5.63;;
36185;SDS011;22228;53.222;7.446;2022-10-17T02:05:17;6.40;;;5.70;;
36185;SDS011;22228;53.222;7.446;2022-10-17T02:07:43;8.10;;;5.63;;
36185;SDS011;22228;53.222;7.446;2022-10-17T02:10:08;7.87;;;5.70;;
36185;SDS011;22228;53.222;7.446;2022-10-17T02:12:34;8.03;;;5.47;;
36185;SDS011;22228;53.222;7.446;2022-10-17T02:15:18;5.87;;;5.33;;
36185;SDS011;22228;53.222;7.446;2022-10-17T02:17:56;9.10;;;5.43;;
36185;SDS011;22228;53.222;7.446;2022-10-17T02:20:30;11.77;;;5.90;;
36185;SDS011;22228;53.222;7.446;2022-10-17T02:22:55;8.17;;;5.33;;
36185;SDS011;22228;53.222;7.446;2022-10-17T02:25:22;6.20;;;5.33;;
36185;SDS011;22228;53.222;7.446;2022-10-17T02:27:52;7.97;;;5.93;;
36185;SDS011;22228;53.222;7.446;2022-10-17T02:30:19;7.17;;;5.20;;
36185;SDS011;22228;53.222;7.446;2022-10-17T02:32:48;6.77;;;5.70;;
36185;SDS011;22228;53.222;7.446;2022-10-17T02:35:14;6.60;;;5.90;;
36185;SDS011;22228;53.222;7.446;2022-10-17T02:37:37;7.50;;;5.80;;
36185;SDS011;22228;53.222;7.446;2022-10-17T02:39:59;7.60;;;6.07;;
36185;SDS011;22228;53.222;7.446;2022-10-17T02:42:20;8.23;;;5.80;;
36185;SDS011;22228;53.222;7.446;2022-10-17T02:44:43;6.63;;;5.93;;
36185;SDS011;22228;53.222;7.446;2022-10-17T02:47:09;6.83;;;5.33;;
36185;SDS011;22228;53.222;7.446;2022-10-17T02:49:35;9.83;;;5.93;;
36185;SDS011;22228;53.222;7.446;2022-10-17T02:52:01;10.33;;;6.47;;
36185;SDS011;22228;53.222;7.446;2022-10-17T02:54:32;8.23;;;7.33;;
36185;SDS011;22228;53.222;7.446;2022-10-17T02:56:58;10.60;;;6.97;;
36185;SDS011;22228;53.222;7.446;2022-10-17T02:59:24;10.87;;;6.83;;
36185;SDS011;22228;53.222;7.446;2022-10-17T03:01:45;7.93;;;6.63;;
36185;SDS011;22228;53.222;7.446;2022-10-17T03:04:07;7.30;;;6.57;;
36185;SDS011;22228;53.222;7.446;2022-10-17T03:06:30;9.00;;;6.60;;
36185;SDS011;22228;53.222;7.446;2022-10-17T03:08:50;8.63;;;6.67;;
36185;SDS011;22228;53.222;7.446;2022-10-17T03:11:12;8.90;;;6.80;;
36185;SDS011;22228;53.222;7.446;2022-10-17T03:13:33;9.43;;;6.47;;
36185;SDS011;22228;53.222;7.446;2022-10-17T03:15:54;9.20;;;7.60;;
36185;SDS011;22228;53.222;7.446;2022-10-17T03:18:15;9.03;;;6.70;;
36185;SDS011;22228;53.222;7.446;2022-10-17T03:20:37;9.03;;;6.90;;
36185;SDS011;22228;53.222;7.446;2022-10-17T03:22:57;9.50;;;7.13;;
36185;SDS011;22228;53.222;7.446;2022-10-17T03:25:20;10.93;;;7.27;;
36185;SDS011;22228;53.222;7.446;2022-10-17T03:27:42;8.23;;;6.70;;
36185;SDS011;22228;53.222;7.446;2022-10-17T03:30:03;9.37;;;7.67;;
36185;SDS011;22228;53.222;7.446;2022-10-17T03:32:25;10.83;;;7.57;;
36185;SDS011;22228;53.222;7.446;2022-10-17T03:34:46;7.80;;;6.60;;
36185;SDS011;22228;53.222;7.446;2022-10-17T03:37:06;7.40;;;6.80;;
36185;SDS011;22228;53.222;7.446;2022-10-17T03:39:29;8.53;;;6.90;;
36185;SDS011;22228;53.222;7.446;2022-10-17T03:41:50;11.23;;;8.00;;
36185;SDS011;22228;53.222;7.446;2022-10-17T03:44:12;8.77;;;7.93;;
36185;SDS011;22228;53.222;7.446;2022-10-17T03:46:32;8.33;;;7.63;;
36185;SDS011;22228;53.222;7.446;2022-10-17T03:48:53;10.83;;;8.47;;
36185;SDS011;22228;53.222;7.446;2022-10-17T03:51:14;9.33;;;8.20;;
36185;SDS011;22228;53.222;7.446;2022-10-17T03:53:41;9.13;;;8.33;;
36185;SDS011;22228;53.222;7.446;2022-10-17T03:56:09;9.80;;;8.60;;
36185;SDS011;22228;53.222;7.446;2022-10-17T03:58:32;9.93;;;8.97;;
36185;SDS011;22228;53.222;7.446;2022-10-17T04:00:54;10.47;;;9.30;;
36185;SDS011;22228;53.222;7.446;2022-10-17T04:03:14;10.40;;;9.23;;
36185;SDS011;22228;53.222;7.446;2022-10-17T04:05:35;11.53;;;10.47;;
36185;SDS011;22228;53.222;7.446;2022-10-17T04:07:56;12.27;;;8.80;;
36185;SDS011;22228;53.222;7.446;2022-10-17T04:10:31;11.67;;;8.90;;
36185;SDS011;22228;53.222;7.446;2022-10-17T04:12:53;11.20;;;9.73;;
36185;SDS011;22228;53.222;7.446;2022-10-17T04:15:14;11.73;;;9.27;;
36185;SDS011;22228;53.222;7.446;2022-10-17T04:17:39;11.97;;;10.77;;
36185;SDS011;22228;53.222;7.446;2022-10-17T04:19:59;12.67;;;9.90;;
36185;SDS011;22228;53.222;7.446;2022-10-17T04:22:20;11.40;;;10.30;;
36185;SDS011;22228;53.222;7.446;2022-10-17T04:24:40;11.13;;;10.13;;
36185;SDS011;22228;53.222;7.446;2022-10-17T04:27:03;12.10;;;10.77;;
36185;SDS011;22228;53.222;7.446;2022-10-17T04:29:27;11.93;;;10.63;;
36185;SDS011;22228;53.222;7.446;2022-10-17T04:31:57;12.10;;;11.07;;
36185;SDS011;22228;53.222;7.446;2022-10-17T04:34:28;12.70;;;11.33;;
36185;SDS011;22228;53.222;7.446;2022-10-17T04:36:49;12.07;;;10.80;;
36185;SDS011;22228;53.222;7.446;2022-10-17T04:39:10;13.47;;;12.17;;
36185;SDS011;22228;53.222;7.446;2022-10-17T04:41:32;13.93;;;12.43;;
36185;SDS011;22228;53.222;7.446;2022-10-17T04:43:54;12.57;;;11.43;;
36185;SDS011;22228;53.222;7.446;2022-10-17T04:46:14;14.30;;;12.83;;
36185;SDS011;22228;53.222;7.446;2022-10-17T04:48:36;15.43;;;13.50;;
36185;SDS011;22228;53.222;7.446;2022-10-17T04:50:59;16.47;;;13.67;;
36185;SDS011;22228;53.222;7.446;2022-10-17T04:53:29;16.23;;;14.53;;
36185;SDS011;22228;53.222;7.446;2022-10-17T04:55:51;17.27;;;15.53;;
36185;SDS011;22228;53.222;7.446;2022-10-17T04:58:12;16.90;;;15.10;;
36185;SDS011;22228;53.222;7.446;2022-10-17T05:00:32;23.60;;;17.67;;
36185;SDS011;22228;53.222;7.446;2022-10-17T05:02:59;25.63;;;18.33;;
36185;SDS011;22228;53.222;7.446;2022-10-17T05:05:21;20.63;;;18.43;;
36185;SDS011;22228;53.222;7.446;2022-10-17T05:07:46;20.83;;;18.50;;
36185;SDS011;22228;53.222;7.446;2022-10-17T05:10:10;24.00;;;19.27;;
36185;SDS011;22228;53.222;7.446;2022-10-17T05:12:33;24.20;;;18.90;;
36185;SDS011;22228;53.222;7.446;2022-10-17T05:14:54;20.70;;;18.47;;
36185;SDS011;22228;53.222;7.446;2022-10-17T05:17:17;20.60;;;18.47;;
36185;SDS011;22228;53.222;7.446;2022-10-17T05:19:37;21.43;;;18.43;;
36185;SDS011;22228;53.222;7.446;2022-10-17T05:21:59;20.87;;;17.97;;
36185;SDS011;22228;53.222;7.446;2022-10-17T05:24:22;20.33;;;17.93;;
36185;SDS011;22228;53.222;7.446;2022-10-17T05:26:42;20.77;;;18.23;;
36185;SDS011;22228;53.222;7.446;2022-10-17T05:29:04;18.83;;;17.03;;
36185;SDS011;22228;53.222;7.446;2022-10-17T05:31:29;19.73;;;17.83;;
36185;SDS011;22228;53.222;7.446;2022-10-17T05:33:50;19.33;;;17.27;;
36185;SDS011;22228;53.222;7.446;2022-10-17T05:36:11;21.10;;;17.97;;
36185;SDS011;22228;53.222;7.446;2022-10-17T05:38:32;19.97;;;17.33;;
36185;SDS011;22228;53.222;7.446;2022-10-17T05:40:57;19.50;;;17.40;;
36185;SDS011;22228;53.222;7.446;2022-10-17T05:43:19;19.97;;;17.87;;
36185;SDS011;22228;53.222;7.446;2022-10-17T05:45:40;20.20;;;17.90;;
36185;SDS011;22228;53.222;7.446;2022-10-17T05:48:05;22.20;;;19.80;;
36185;SDS011;22228;53.222;7.446;2022-10-17T05:50:27;24.50;;;20.93;;
36185;SDS011;22228;53.222;7.446;2022-10-17T05:52:55;26.47;;;22.63;;
36185;SDS011;22228;53.222;7.446;2022-10-17T05:55:16;27.00;;;22.13;;
36185;SDS011;22228;53.222;7.446;2022-10-17T05:57:38;22.00;;;19.80;;
36185;SDS011;22228;53.222;7.446;2022-10-17T06:00:03;24.60;;;19.27;;
36185;SDS011;22228;53.222;7.446;2022-10-17T06:02:33;22.97;;;19.43;;
36185;SDS011;22228;53.222;7.446;2022-10-17T06:04:53;23.23;;;20.10;;
36185;SDS011;22228;53.222;7.446;2022-10-17T06:07:15;25.10;;;19.90;;
36185;SDS011;22228;53.222;7.446;2022-10-17T06:09:36;25.37;;;19.90;;
36185;SDS011;22228;53.222;7.446;2022-10-17T06:11:57;30.30;;;22.37;;
36185;SDS011;22228;53.222;7.446;2022-10-17T06:14:19;26.97;;;21.53;;
36185;SDS011;22228;53.222;7.446;2022-10-17T06:16:43;26.77;;;21.20;;
36185;SDS011;22228;53.222;7.446;2022-10-17T06:19:03;27.60;;;20.17;;
36185;SDS011;22228;53.222;7.446;2022-10-17T06:21:24;25.87;;;20.07;;
36185;SDS011;22228;53.222;7.446;2022-10-17T06:23:54;26.97;;;20.30;;
36185;SDS011;22228;53.222;7.446;2022-10-17T06:26:22;24.40;;;19.33;;
36185;SDS011;22228;53.222;7.446;2022-10-17T06:28:43;21.67;;;19.47;;
36185;SDS011;22228;53.222;7.446;2022-10-17T06:31:07;20.97;;;17.83;;
36185;SDS011;22228;53.222;7.446;2022-10-17T06:33:28;20.90;;;17.80;;
36185;SDS011;22228;53.222;7.446;2022-10-17T06:35:52;19.47;;;17.53;;
36185;SDS011;22228;53.222;7.446;2022-10-17T06:38:15;20.80;;;18.13;;
36185;SDS011;22228;53.222;7.446;2022-10-17T06:40:35;18.73;;;17.00;;
36185;SDS011;22228;53.222;7.446;2022-10-17T06:42:56;18.70;;;16.80;;
36185;SDS011;22228;53.222;7.446;2022-10-17T06:45:29;20.17;;;17.77;;
36185;SDS011;22228;53.222;7.446;2022-10-17T06:48:07;19.00;;;17.10;;
36185;SDS011;22228;53.222;7.446;2022-10-17T06:50:58;17.80;;;15.97;;
36185;SDS011;22228;53.222;7.446;2022-10-17T06:53:20;19.50;;;17.17;;
36185;SDS011;22228;53.222;7.446;2022-10-17T06:55:45;18.73;;;16.83;;
36185;SDS011;22228;53.222;7.446;2022-10-17T06:58:30;17.70;;;15.90;;
36185;SDS011;22228;53.222;7.446;2022-10-17T07:01:00;18.03;;;16.40;;
36185;SDS011;22228;53.222;7.446;2022-10-17T07:03:22;17.60;;;15.80;;
36185;SDS011;22228;53.222;7.446;2022-10-17T07:05:49;18.73;;;17.03;;
36185;SDS011;22228;53.222;7.446;2022-10-17T07:08:10;18.03;;;16.33;;
36185;SDS011;22228;53.222;7.446;2022-10-17T07:10:31;18.13;;;16.30;;
36185;SDS011;22228;53.222;7.446;2022-10-17T07:12:57;17.90;;;16.00;;
36185;SDS011;22228;53.222;7.446;2022-10-17T07:15:17;17.67;;;15.73;;
36185;SDS011;22228;53.222;7.446;2022-10-17T07:17:38;16.63;;;15.03;;
36185;SDS011;22228;53.222;7.446;2022-10-17T07:20:01;16.97;;;14.13;;
36185;SDS011;22228;53.222;7.446;2022-10-17T07:22:24;16.53;;;15.07;;
36185;SDS011;22228;53.222;7.446;2022-10-17T07:24:49;16.33;;;14.93;;
36185;SDS011;22228;53.222;7.446;2022-10-17T07:27:15;17.20;;;15.63;;
36185;SDS011;22228;53.222;7.446;2022-10-17T07:29:36;16.57;;;14.97;;
36185;SDS011;22228;53.222;7.446;2022-10-17T07:32:09;15.53;;;14.07;;
36185;SDS011;22228;53.222;7.446;2022-10-17T07:34:29;16.67;;;14.13;;
36185;SDS011;22228;53.222;7.446;2022-10-17T07:36:52;21.37;;;19.23;;
36185;SDS011;22228;53.222;7.446;2022-10-17T07:39:12;18.17;;;16.40;;
36185;SDS011;22228;53.222;7.446;2022-10-17T07:41:33;16.00;;;14.40;;
36185;SDS011;22228;53.222;7.446;2022-10-17T07:43:54;15.63;;;14.00;;
36185;SDS011;22228;53.222;7.446;2022-10-17T07:46:20;15.67;;;14.00;;
36185;SDS011;22228;53.222;7.446;2022-10-17T07:48:41;15.33;;;13.83;;
36185;SDS011;22228;53.222;7.446;2022-10-17T07:51:02;14.47;;;13.07;;
36185;SDS011;22228;53.222;7.446;2022-10-17T07:53:24;15.33;;;13.73;;
36185;SDS011;22228;53.222;7.446;2022-10-17T07:55:45;13.83;;;12.57;;
36185;SDS011;22228;53.222;7.446;2022-10-17T07:58:07;14.67;;;13.07;;
36185;SDS011;22228;53.222;7.446;2022-10-17T08:00:28;14.43;;;12.97;;
36185;SDS011;22228;53.222;7.446;2022-10-17T08:02:49;18.73;;;13.33;;
36185;SDS011;22228;53.222;7.446;2022-10-17T08:05:09;13.97;;;12.57;;
36185;SDS011;22228;53.222;7.446;2022-10-17T08:07:30;13.57;;;12.17;;
36185;SDS011;22228;53.222;7.446;2022-10-17T08:09:52;13.50;;;12.27;;
36185;SDS011;22228;53.222;7.446;2022-10-17T08:12:13;14.00;;;12.60;;
36185;SDS011;22228;53.222;7.446;2022-10-17T08:14:34;13.10;;;11.87;;
36185;SDS011;22228;53.222;7.446;2022-10-17T08:16:54;12.00;;;10.77;;
36185;SDS011;22228;53.222;7.446;2022-10-17T08:19:15;12.40;;;11.10;;
36185;SDS011;22228;53.222;7.446;2022-10-17T08:21:36;11.83;;;10.40;;
36185;SDS011;22228;53.222;7.446;2022-10-17T08:23:57;10.53;;;9.63;;
36185;SDS011;22228;53.222;7.446;2022-10-17T08:26:19;11.47;;;10.40;;
36185;SDS011;22228;53.222;7.446;2022-10-17T08:28:40;11.10;;;10.07;;
36185;SDS011;22228;53.222;7.446;2022-10-17T08:31:01;13.13;;;10.53;;
36185;SDS011;22228;53.222;7.446;2022-10-17T08:33:22;11.67;;;10.00;;
36185;SDS011;22228;53.222;7.446;2022-10-17T08:35:42;10.40;;;9.40;;
36185;SDS011;22228;53.222;7.446;2022-10-17T08:38:03;12.23;;;9.80;;
36185;SDS011;22228;53.222;7.446;2022-10-17T08:40:24;10.47;;;9.30;;
36185;SDS011;22228;53.222;7.446;2022-10-17T08:42:54;9.27;;;8.37;;
36185;SDS011;22228;53.222;7.446;2022-10-17T08:45:37;8.30;;;7.50;;
36185;SDS011;22228;53.222;7.446;2022-10-17T08:48:04;8.87;;;8.13;;
36185;SDS011;22228;53.222;7.446;2022-10-17T08:50:30;8.23;;;7.43;;
36185;SDS011;22228;53.222;7.446;2022-10-17T08:52:54;7.73;;;7.03;;
36185;SDS011;22228;53.222;7.446;2022-10-17T08:55:23;7.00;;;6.37;;
36185;SDS011;22228;53.222;7.446;2022-10-17T08:57:48;10.20;;;7.33;;
36185;SDS011;22228;53.222;7.446;2022-10-17T09:00:13;8.17;;;7.40;;
36185;SDS011;22228;53.222;7.446;2022-10-17T09:02:38;7.63;;;6.93;;
36185;SDS011;22228;53.222;7.446;2022-10-17T09:07:54;7.23;;;6.33;;
36185;SDS011;22228;53.222;7.446;2022-10-17T09:10:24;8.47;;;7.03;;
36185;SDS011;22228;53.222;7.446;2022-10-17T09:12:55;7.43;;;6.77;;
36185;SDS011;22228;53.222;7.446;2022-10-17T09:15:33;9.23;;;7.37;;
36185;SDS011;22228;53.222;7.446;2022-10-17T09:18:02;8.00;;;7.20;;
36185;SDS011;22228;53.222;7.446;2022-10-17T09:20:29;7.90;;;6.70;;
36185;SDS011;22228;53.222;7.446;2022-10-17T09:22:54;8.97;;;7.13;;
36185;SDS011;22228;53.222;7.446;2022-10-17T09:25:17;7.83;;;7.03;;
36185;SDS011;22228;53.222;7.446;2022-10-17T09:27:39;7.30;;;6.67;;
36185;SDS011;22228;53.222;7.446;2022-10-17T09:30:15;7.70;;;7.10;;
36185;SDS011;22228;53.222;7.446;2022-10-17T09:32:48;18.87;;;8.60;;
36185;SDS011;22228;53.222;7.446;2022-10-17T09:35:10;11.23;;;7.67;;
36185;SDS011;22228;53.222;7.446;2022-10-17T09:37:31;14.57;;;9.23;;
36185;SDS011;22228;53.222;7.446;2022-10-17T09:39:52;8.43;;;7.47;;
36185;SDS011;22228;53.222;7.446;2022-10-17T09:42:13;9.80;;;7.20;;
36185;SDS011;22228;53.222;7.446;2022-10-17T09:44:38;14.37;;;8.77;;
36185;SDS011;22228;53.222;7.446;2022-10-17T09:47:14;14.20;;;7.57;;
36185;SDS011;22228;53.222;7.446;2022-10-17T09:49:43;30.30;;;11.40;;
36185;SDS011;22228;53.222;7.446;2022-10-17T09:52:05;10.20;;;7.90;;
36185;SDS011;22228;53.222;7.446;2022-10-17T09:54:34;70.00;;;16.47;;
36185;SDS011;22228;53.222;7.446;2022-10-17T09:57:00;35.87;;;10.67;;
36185;SDS011;22228;53.222;7.446;2022-10-17T09:59:28;29.77;;;10.93;;
36185;SDS011;22228;53.222;7.446;2022-10-17T10:01:50;38.13;;;11.40;;
36185;SDS011;22228;53.222;7.446;2022-10-17T10:04:44;20.27;;;7.63;;
36185;SDS011;22228;53.222;7.446;2022-10-17T10:07:11;34.20;;;10.07;;
36185;SDS011;22228;53.222;7.446;2022-10-17T10:09:32;15.83;;;7.97;;
36185;SDS011;22228;53.222;7.446;2022-10-17T10:11:56;66.93;;;16.23;;
36185;SDS011;22228;53.222;7.446;2022-10-17T10:14:19;55.30;;;14.40;;
36185;SDS011;22228;53.222;7.446;2022-10-17T10:16:42;59.60;;;14.17;;
36185;SDS011;22228;53.222;7.446;2022-10-17T10:19:03;33.47;;;11.80;;
36185;SDS011;22228;53.222;7.446;2022-10-17T10:21:41;194.77;;;33.13;;
36185;SDS011;22228;53.222;7.446;2022-10-17T10:24:14;20.40;;;8.67;;
36185;SDS011;22228;53.222;7.446;2022-10-17T10:26:37;84.07;;;17.50;;
36185;SDS011;22228;53.222;7.446;2022-10-17T10:29:00;97.73;;;19.50;;
36185;SDS011;22228;53.222;7.446;2022-10-17T10:31:30;322.70;;;50.00;;
36185;SDS011;22228;53.222;7.446;2022-10-17T10:33:52;215.13;;;36.97;;
36185;SDS011;22228;53.222;7.446;2022-10-17T10:36:13;62.80;;;15.73;;
36185;SDS011;22228;53.222;7.446;2022-10-17T10:38:35;34.83;;;11.03;;
36185;SDS011;22228;53.222;7.446;2022-10-17T10:41:03;77.07;;;16.10;;
36185;SDS011;22228;53.222;7.446;2022-10-17T10:43:28;44.37;;;13.27;;
36185;SDS011;22228;53.222;7.446;2022-10-17T10:45:53;12.50;;;8.10;;
36185;SDS011;22228;53.222;7.446;2022-10-17T10:48:17;77.70;;;17.40;;
36185;SDS011;22228;53.222;7.446;2022-10-17T10:50:41;90.00;;;21.20;;
36185;SDS011;22228;53.222;7.446;2022-10-17T10:53:08;27.33;;;11.27;;
36185;SDS011;22228;53.222;7.446;2022-10-17T10:55:41;41.27;;;13.50;;
36185;SDS011;22228;53.222;7.446;2022-10-17T10:58:08;38.30;;;13.90;;
36185;SDS011;22228;53.222;7.446;2022-10-17T11:00:45;51.90;;;13.87;;
36185;SDS011;22228;53.222;7.446;2022-10-17T11:03:08;20.90;;;11.23;;
36185;SDS011;22228;53.222;7.446;2022-10-17T11:05:36;12.77;;;8.70;;
36185;SDS011;22228;53.222;7.446;2022-10-17T11:08:04;10.27;;;9.17;;
36185;SDS011;22228;53.222;7.446;2022-10-17T11:10:32;10.00;;;8.93;;
36185;SDS011;22228;53.222;7.446;2022-10-17T11:13:00;10.63;;;9.73;;
36185;SDS011;22228;53.222;7.446;2022-10-17T11:15:27;10.20;;;9.40;;
36185;SDS011;22228;53.222;7.446;2022-10-17T11:17:54;12.93;;;10.60;;
36185;SDS011;22228;53.222;7.446;2022-10-17T11:20:19;16.33;;;11.73;;
36185;SDS011;22228;53.222;7.446;2022-10-17T11:22:46;46.10;;;16.03;;
36185;SDS011;22228;53.222;7.446;2022-10-17T11:25:13;134.33;;;27.87;;
36185;SDS011;22228;53.222;7.446;2022-10-17T11:27:41;133.87;;;28.90;;
36185;SDS011;22228;53.222;7.446;2022-10-17T11:30:03;23.33;;;13.07;;
36185;SDS011;22228;53.222;7.446;2022-10-17T11:32:25;13.00;;;11.70;;
36185;SDS011;22228;53.222;7.446;2022-10-17T11:34:51;12.47;;;11.27;;
36185;SDS011;22228;53.222;7.446;2022-10-17T11:37:16;13.20;;;11.90;;
36185;SDS011;22228;53.222;7.446;2022-10-17T11:39:41;13.73;;;12.53;;
36185;SDS011;22228;53.222;7.446;2022-10-17T11:42:08;13.17;;;11.93;;
36185;SDS011;22228;53.222;7.446;2022-10-17T11:44:33;13.40;;;12.17;;
36185;SDS011;22228;53.222;7.446;2022-10-17T11:46:57;14.73;;;13.27;;
36185;SDS011;22228;53.222;7.446;2022-10-17T11:49:23;15.30;;;13.70;;
36185;SDS011;22228;53.222;7.446;2022-10-17T11:51:49;14.53;;;12.87;;
36185;SDS011;22228;53.222;7.446;2022-10-17T11:54:15;25.07;;;22.57;;
36185;SDS011;22228;53.222;7.446;2022-10-17T11:56:41;19.43;;;17.63;;
36185;SDS011;22228;53.222;7.446;2022-10-17T11:59:17;16.60;;;14.80;;
36185;SDS011;22228;53.222;7.446;2022-10-17T12:02:00;14.03;;;12.83;;
36185;SDS011;22228;53.222;7.446;2022-10-17T12:04:33;15.93;;;14.50;;
36185;SDS011;22228;53.222;7.446;2022-10-17T12:07:07;16.07;;;14.47;;
36185;SDS011;22228;53.222;7.446;2022-10-17T12:09:38;15.20;;;13.77;;
36185;SDS011;22228;53.222;7.446;2022-10-17T12:12:03;16.07;;;14.53;;
36185;SDS011;22228;53.222;7.446;2022-10-17T12:14:34;15.90;;;14.40;;
36185;SDS011;22228;53.222;7.446;2022-10-17T12:17:01;16.60;;;14.90;;
36185;SDS011;22228;53.222;7.446;2022-10-17T12:19:26;17.77;;;16.33;;
36185;SDS011;22228;53.222;7.446;2022-10-17T12:21:54;18.40;;;16.57;;
36185;SDS011;22228;53.222;7.446;2022-10-17T12:24:34;19.07;;;17.27;;
36185;SDS011;22228;53.222;7.446;2022-10-17T12:27:10;21.37;;;19.43;;
36185;SDS011;22228;53.222;7.446;2022-10-17T12:29:53;28.10;;;25.23;;
36185;SDS011;22228;53.222;7.446;2022-10-17T12:32:19;22.20;;;20.00;;
36185;SDS011;22228;53.222;7.446;2022-10-17T12:34:43;16.97;;;15.37;;
36185;SDS011;22228;53.222;7.446;2022-10-17T12:37:10;18.57;;;16.83;;
36185;SDS011;22228;53.222;7.446;2022-10-17T12:39:42;16.83;;;15.13;;
36185;SDS011;22228;53.222;7.446;2022-10-17T12:42:02;18.27;;;16.60;;
36185;SDS011;22228;53.222;7.446;2022-10-17T12:44:43;16.60;;;15.03;;
36185;SDS011;22228;53.222;7.446;2022-10-17T12:49:55;15.97;;;14.50;;
36185;SDS011;22228;53.222;7.446;2022-10-17T12:52:23;14.87;;;13.57;;
36185;SDS011;22228;53.222;7.446;2022-10-17T12:54:46;15.53;;;14.03;;
36185;SDS011;22228;53.222;7.446;2022-10-17T12:57:12;15.43;;;13.90;;
36185;SDS011;22228;53.222;7.446;2022-10-17T12:59:37;16.20;;;14.47;;
36185;SDS011;22228;53.222;7.446;2022-10-17T13:02:02;15.00;;;13.50;;
36185;SDS011;22228;53.222;7.446;2022-10-17T13:04:24;13.87;;;12.60;;
36185;SDS011;22228;53.222;7.446;2022-10-17T13:06:48;12.90;;;11.87;;
36185;SDS011;22228;53.222;7.446;2022-10-17T13:09:17;12.37;;;11.17;;
36185;SDS011;22228;53.222;7.446;2022-10-17T13:11:43;12.73;;;11.53;;
36185;SDS011;22228;53.222;7.446;2022-10-17T13:14:08;13.37;;;12.17;;
36185;SDS011;22228;53.222;7.446;2022-10-17T13:16:31;12.60;;;11.50;;
36185;SDS011;22228;53.222;7.446;2022-10-17T13:18:53;12.87;;;11.77;;
36185;SDS011;22228;53.222;7.446;2022-10-17T13:21:16;12.07;;;10.97;;
36185;SDS011;22228;53.222;7.446;2022-10-17T13:23:36;12.27;;;11.20;;
36185;SDS011;22228;53.222;7.446;2022-10-17T13:26:12;24.27;;;14.63;;
36185;SDS011;22228;53.222;7.446;2022-10-17T13:28:34;122.23;;;28.17;;
36185;SDS011;22228;53.222;7.446;2022-10-17T13:30:55;48.83;;;20.03;;
36185;SDS011;22228;53.222;7.446;2022-10-17T13:35:58;21.93;;;12.07;;
36185;SDS011;22228;53.222;7.446;2022-10-17T13:38:25;17.70;;;12.37;;
36185;SDS011;22228;53.222;7.446;2022-10-17T13:40:47;12.97;;;11.77;;
36185;SDS011;22228;53.222;7.446;2022-10-17T13:43:11;19.70;;;13.20;;
36185;SDS011;22228;53.222;7.446;2022-10-17T13:45:36;17.30;;;12.20;;
36185;SDS011;22228;53.222;7.446;2022-10-17T13:48:01;17.70;;;11.40;;
36185;SDS011;22228;53.222;7.446;2022-10-17T13:50:25;11.93;;;10.93;;
36185;SDS011;22228;53.222;7.446;2022-10-17T13:53:06;34.40;;;13.90;;
36185;SDS011;22228;53.222;7.446;2022-10-17T13:55:37;51.23;;;15.73;;
36185;SDS011;22228;53.222;7.446;2022-10-17T13:58:07;40.13;;;12.27;;
36185;SDS011;22228;53.222;7.446;2022-10-17T14:00:28;19.30;;;11.37;;
36185;SDS011;22228;53.222;7.446;2022-10-17T14:02:49;18.70;;;11.27;;
36185;SDS011;22228;53.222;7.446;2022-10-17T14:05:10;9.57;;;8.67;;
36185;SDS011;22228;53.222;7.446;2022-10-17T14:07:34;26.33;;;12.00;;
36185;SDS011;22228;53.222;7.446;2022-10-17T14:09:57;56.30;;;15.93;;
36185;SDS011;22228;53.222;7.446;2022-10-17T14:12:19;71.23;;;21.40;;
36185;SDS011;22228;53.222;7.446;2022-10-17T14:14:45;16.03;;;12.70;;
36185;SDS011;22228;53.222;7.446;2022-10-17T14:17:11;179.97;;;34.67;;
36185;SDS011;22228;53.222;7.446;2022-10-17T14:19:34;15.53;;;10.13;;
36185;SDS011;22228;53.222;7.446;2022-10-17T14:24:36;44.53;;;14.23;;
36185;SDS011;22228;53.222;7.446;2022-10-17T14:26:57;29.67;;;12.73;;
36185;SDS011;22228;53.222;7.446;2022-10-17T14:29:23;96.73;;;21.13;;